sensor_id;sensor_type;location;lat;lon;timestamp;P1;durP1;ratioP1;P2;durP2;ratioP2
64957;SDS011;51486;50.232;19.208;2023-03-13T00:01:31;4.00;;;2.07;;
64957;SDS011;51486;50.232;19.208;2023-03-13T00:04:17;7.87;;;2.53;;
64957;SDS011;51486;50.232;19.208;2023-03-13T00:07:02;8.00;;;1.93;;
64957;SDS011;51486;50.232;19.208;2023-03-13T00:09:49;8.37;;;2.60;;
64957;SDS011;51486;50.232;19.208;2023-03-13T00:12:34;4.27;;;2.07;;
64957;SDS011;51486;50.232;19.208;2023-03-13T00:15:20;4.77;;;2.20;;
64957;SDS011;51486;50.232;19.208;2023-03-13T00:18:06;4.57;;;1.93;;
64957;SDS011;51486;50.232;19.208;2023-03-13T00:21:02;5.97;;;2.60;;
64957;SDS011;51486;50.232;19.208;2023-03-13T00:23:48;2.23;;;1.53;;
64957;SDS011;51486;50.232;19.208;2023-03-13T00:26:34;4.93;;;2.23;;
64957;SDS011;51486;50.232;19.208;2023-03-13T00:29:19;4.63;;;2.07;;
64957;SDS011;51486;50.232;19.208;2023-03-13T00:32:05;4.30;;;1.83;;
64957;SDS011;51486;50.232;19.208;2023-03-13T00:34:51;2.60;;;1.90;;
64957;SDS011;51486;50.232;19.208;2023-03-13T00:37:37;3.53;;;1.77;;
64957;SDS011;51486;50.232;19.208;2023-03-13T00:40:23;4.37;;;2.30;;
64957;SDS011;51486;50.232;19.208;2023-03-13T00:43:08;4.83;;;2.03;;
64957;SDS011;51486;50.232;19.208;2023-03-13T00:45:54;3.53;;;1.80;;
64957;SDS011;51486;50.232;19.208;2023-03-13T00:48:40;6.53;;;2.37;;
64957;SDS011;51486;50.232;19.208;2023-03-13T00:51:26;2.00;;;1.43;;
64957;SDS011;51486;50.232;19.208;2023-03-13T00:54:12;6.77;;;2.60;;
64957;SDS011;51486;50.232;19.208;2023-03-13T00:56:58;5.93;;;2.30;;
64957;SDS011;51486;50.232;19.208;2023-03-13T00:59:43;3.43;;;1.80;;
64957;SDS011;51486;50.232;19.208;2023-03-13T01:02:29;6.63;;;2.13;;
64957;SDS011;51486;50.232;19.208;2023-03-13T01:05:15;5.33;;;2.20;;
64957;SDS011;51486;50.232;19.208;2023-03-13T01:08:01;7.43;;;2.70;;
64957;SDS011;51486;50.232;19.208;2023-03-13T01:10:46;5.50;;;2.17;;
64957;SDS011;51486;50.232;19.208;2023-03-13T01:13:32;5.73;;;2.00;;
64957;SDS011;51486;50.232;19.208;2023-03-13T01:16:19;5.47;;;2.63;;
64957;SDS011;51486;50.232;19.208;2023-03-13T01:19:09;5.57;;;2.30;;
64957;SDS011;51486;50.232;19.208;2023-03-13T01:21:55;5.97;;;3.37;;
64957;SDS011;51486;50.232;19.208;2023-03-13T01:24:41;7.53;;;2.53;;
64957;SDS011;51486;50.232;19.208;2023-03-13T01:27:27;11.80;;;4.00;;
64957;SDS011;51486;50.232;19.208;2023-03-13T01:30:13;5.60;;;2.60;;
64957;SDS011;51486;50.232;19.208;2023-03-13T01:32:59;5.53;;;2.73;;
64957;SDS011;51486;50.232;19.208;2023-03-13T01:35:44;3.30;;;2.17;;
64957;SDS011;51486;50.232;19.208;2023-03-13T01:38:30;6.57;;;2.30;;
64957;SDS011;51486;50.232;19.208;2023-03-13T01:41:16;13.90;;;3.87;;
64957;SDS011;51486;50.232;19.208;2023-03-13T01:44:02;6.37;;;3.40;;
64957;SDS011;51486;50.232;19.208;2023-03-13T01:46:48;7.53;;;3.03;;
64957;SDS011;51486;50.232;19.208;2023-03-13T01:49:34;8.93;;;3.33;;
64957;SDS011;51486;50.232;19.208;2023-03-13T01:52:22;19.37;;;5.13;;
64957;SDS011;51486;50.232;19.208;2023-03-13T01:55:09;5.23;;;2.73;;
64957;SDS011;51486;50.232;19.208;2023-03-13T01:57:56;6.60;;;3.10;;
64957;SDS011;51486;50.232;19.208;2023-03-13T02:00:41;7.13;;;2.20;;
64957;SDS011;51486;50.232;19.208;2023-03-13T02:03:28;5.50;;;2.77;;
64957;SDS011;51486;50.232;19.208;2023-03-13T02:06:14;5.53;;;2.83;;
64957;SDS011;51486;50.232;19.208;2023-03-13T02:09:04;4.90;;;2.57;;
64957;SDS011;51486;50.232;19.208;2023-03-13T02:11:59;7.93;;;2.13;;
64957;SDS011;51486;50.232;19.208;2023-03-13T02:14:47;4.83;;;2.53;;
64957;SDS011;51486;50.232;19.208;2023-03-13T02:17:34;3.57;;;2.13;;
64957;SDS011;51486;50.232;19.208;2023-03-13T02:20:21;4.90;;;2.53;;
64957;SDS011;51486;50.232;19.208;2023-03-13T02:23:17;3.97;;;1.73;;
64957;SDS011;51486;50.232;19.208;2023-03-13T02:26:04;4.20;;;2.10;;
64957;SDS011;51486;50.232;19.208;2023-03-13T02:28:51;4.20;;;2.50;;
64957;SDS011;51486;50.232;19.208;2023-03-13T02:31:37;4.70;;;2.73;;
64957;SDS011;51486;50.232;19.208;2023-03-13T02:34:27;4.20;;;2.33;;
64957;SDS011;51486;50.232;19.208;2023-03-13T02:37:14;5.23;;;2.57;;
64957;SDS011;51486;50.232;19.208;2023-03-13T02:40:00;3.63;;;2.17;;
64957;SDS011;51486;50.232;19.208;2023-03-13T02:42:48;5.80;;;2.77;;
64957;SDS011;51486;50.232;19.208;2023-03-13T02:45:35;6.60;;;3.07;;
64957;SDS011;51486;50.232;19.208;2023-03-13T02:48:27;8.83;;;2.23;;
64957;SDS011;51486;50.232;19.208;2023-03-13T02:54:10;3.33;;;2.10;;
64957;SDS011;51486;50.232;19.208;2023-03-13T02:56:57;11.97;;;2.63;;
64957;SDS011;51486;50.232;19.208;2023-03-13T02:59:45;5.17;;;3.00;;
64957;SDS011;51486;50.232;19.208;2023-03-13T03:02:30;4.60;;;2.50;;
64957;SDS011;51486;50.232;19.208;2023-03-13T03:05:16;5.07;;;2.90;;
64957;SDS011;51486;50.232;19.208;2023-03-13T03:08:02;4.50;;;2.20;;
64957;SDS011;51486;50.232;19.208;2023-03-13T03:10:47;4.47;;;2.43;;
64957;SDS011;51486;50.232;19.208;2023-03-13T03:13:33;4.10;;;2.07;;
64957;SDS011;51486;50.232;19.208;2023-03-13T03:16:19;6.03;;;2.53;;
64957;SDS011;51486;50.232;19.208;2023-03-13T03:19:06;4.00;;;2.37;;
64957;SDS011;51486;50.232;19.208;2023-03-13T03:21:51;3.73;;;2.30;;
64957;SDS011;51486;50.232;19.208;2023-03-13T03:24:37;5.57;;;2.20;;
64957;SDS011;51486;50.232;19.208;2023-03-13T03:27:23;3.63;;;2.27;;
64957;SDS011;51486;50.232;19.208;2023-03-13T03:30:09;8.07;;;2.83;;
64957;SDS011;51486;50.232;19.208;2023-03-13T03:32:54;4.40;;;2.50;;
64957;SDS011;51486;50.232;19.208;2023-03-13T03:35:40;3.60;;;2.03;;
64957;SDS011;51486;50.232;19.208;2023-03-13T03:38:26;6.50;;;2.70;;
64957;SDS011;51486;50.232;19.208;2023-03-13T03:41:12;5.23;;;3.13;;
64957;SDS011;51486;50.232;19.208;2023-03-13T03:44:01;3.23;;;1.87;;
64957;SDS011;51486;50.232;19.208;2023-03-13T03:46:46;5.40;;;2.73;;
64957;SDS011;51486;50.232;19.208;2023-03-13T03:49:32;7.47;;;2.83;;
64957;SDS011;51486;50.232;19.208;2023-03-13T03:52:18;5.40;;;2.13;;
64957;SDS011;51486;50.232;19.208;2023-03-13T03:55:04;5.60;;;2.50;;
64957;SDS011;51486;50.232;19.208;2023-03-13T03:57:49;5.63;;;2.70;;
64957;SDS011;51486;50.232;19.208;2023-03-13T04:00:35;5.40;;;2.90;;
64957;SDS011;51486;50.232;19.208;2023-03-13T04:03:21;4.43;;;2.53;;
64957;SDS011;51486;50.232;19.208;2023-03-13T04:06:06;5.70;;;2.37;;
64957;SDS011;51486;50.232;19.208;2023-03-13T04:08:53;5.70;;;3.00;;
64957;SDS011;51486;50.232;19.208;2023-03-13T04:11:40;5.53;;;2.67;;
64957;SDS011;51486;50.232;19.208;2023-03-13T04:14:26;4.07;;;2.57;;
64957;SDS011;51486;50.232;19.208;2023-03-13T04:17:11;7.07;;;2.40;;
64957;SDS011;51486;50.232;19.208;2023-03-13T04:19:57;11.23;;;3.03;;
64957;SDS011;51486;50.232;19.208;2023-03-13T04:22:43;7.57;;;2.73;;
64957;SDS011;51486;50.232;19.208;2023-03-13T04:25:29;3.57;;;2.47;;
64957;SDS011;51486;50.232;19.208;2023-03-13T04:28:14;8.10;;;2.57;;
64957;SDS011;51486;50.232;19.208;2023-03-13T04:31:00;4.70;;;2.63;;
64957;SDS011;51486;50.232;19.208;2023-03-13T04:33:46;5.00;;;2.90;;
64957;SDS011;51486;50.232;19.208;2023-03-13T04:36:31;4.33;;;2.40;;
64957;SDS011;51486;50.232;19.208;2023-03-13T04:39:17;4.60;;;2.80;;
64957;SDS011;51486;50.232;19.208;2023-03-13T04:42:03;5.90;;;3.13;;
64957;SDS011;51486;50.232;19.208;2023-03-13T04:44:48;5.10;;;2.60;;
64957;SDS011;51486;50.232;19.208;2023-03-13T04:47:34;5.07;;;2.50;;
64957;SDS011;51486;50.232;19.208;2023-03-13T04:50:20;4.80;;;2.13;;
64957;SDS011;51486;50.232;19.208;2023-03-13T04:53:06;5.90;;;3.07;;
64957;SDS011;51486;50.232;19.208;2023-03-13T04:55:51;7.90;;;3.57;;
64957;SDS011;51486;50.232;19.208;2023-03-13T04:58:37;9.23;;;3.53;;
64957;SDS011;51486;50.232;19.208;2023-03-13T05:01:23;10.20;;;3.67;;
64957;SDS011;51486;50.232;19.208;2023-03-13T05:04:09;10.57;;;3.50;;
64957;SDS011;51486;50.232;19.208;2023-03-13T05:06:55;7.10;;;4.57;;
64957;SDS011;51486;50.232;19.208;2023-03-13T05:09:40;10.97;;;5.17;;
64957;SDS011;51486;50.232;19.208;2023-03-13T05:12:26;9.87;;;4.33;;
64957;SDS011;51486;50.232;19.208;2023-03-13T05:15:12;8.07;;;3.73;;
64957;SDS011;51486;50.232;19.208;2023-03-13T05:17:58;7.07;;;3.97;;
64957;SDS011;51486;50.232;19.208;2023-03-13T05:20:43;11.77;;;4.17;;
64957;SDS011;51486;50.232;19.208;2023-03-13T05:23:29;10.07;;;4.50;;
64957;SDS011;51486;50.232;19.208;2023-03-13T05:26:15;6.43;;;3.83;;
64957;SDS011;51486;50.232;19.208;2023-03-13T05:29:00;7.53;;;3.47;;
64957;SDS011;51486;50.232;19.208;2023-03-13T05:31:46;15.90;;;4.90;;
64957;SDS011;51486;50.232;19.208;2023-03-13T05:34:32;9.03;;;3.70;;
64957;SDS011;51486;50.232;19.208;2023-03-13T05:37:18;8.97;;;4.77;;
64957;SDS011;51486;50.232;19.208;2023-03-13T05:40:03;8.47;;;5.30;;
64957;SDS011;51486;50.232;19.208;2023-03-13T05:42:49;8.70;;;4.17;;
64957;SDS011;51486;50.232;19.208;2023-03-13T05:45:35;14.03;;;5.53;;
64957;SDS011;51486;50.232;19.208;2023-03-13T05:48:21;13.60;;;5.90;;
64957;SDS011;51486;50.232;19.208;2023-03-13T05:51:07;22.83;;;5.90;;
64957;SDS011;51486;50.232;19.208;2023-03-13T05:53:52;12.27;;;6.20;;
64957;SDS011;51486;50.232;19.208;2023-03-13T05:56:38;14.40;;;7.17;;
64957;SDS011;51486;50.232;19.208;2023-03-13T05:59:24;7.33;;;4.37;;
64957;SDS011;51486;50.232;19.208;2023-03-13T06:02:09;11.80;;;5.50;;
64957;SDS011;51486;50.232;19.208;2023-03-13T06:04:55;10.90;;;5.07;;
64957;SDS011;51486;50.232;19.208;2023-03-13T06:07:41;10.73;;;3.73;;
64957;SDS011;51486;50.232;19.208;2023-03-13T06:10:26;12.07;;;4.73;;
64957;SDS011;51486;50.232;19.208;2023-03-13T06:13:12;8.33;;;4.00;;
64957;SDS011;51486;50.232;19.208;2023-03-13T06:15:58;7.40;;;3.57;;
64957;SDS011;51486;50.232;19.208;2023-03-13T06:18:44;12.27;;;3.60;;
64957;SDS011;51486;50.232;19.208;2023-03-13T06:21:30;7.53;;;3.10;;
64957;SDS011;51486;50.232;19.208;2023-03-13T06:24:16;8.20;;;3.33;;
64957;SDS011;51486;50.232;19.208;2023-03-13T06:27:01;5.03;;;2.70;;
64957;SDS011;51486;50.232;19.208;2023-03-13T06:29:47;6.53;;;3.00;;
64957;SDS011;51486;50.232;19.208;2023-03-13T06:32:33;5.13;;;2.63;;
64957;SDS011;51486;50.232;19.208;2023-03-13T06:35:19;4.90;;;2.70;;
64957;SDS011;51486;50.232;19.208;2023-03-13T06:38:04;6.77;;;2.70;;
64957;SDS011;51486;50.232;19.208;2023-03-13T06:40:50;5.83;;;2.90;;
64957;SDS011;51486;50.232;19.208;2023-03-13T06:43:36;5.23;;;2.90;;
64957;SDS011;51486;50.232;19.208;2023-03-13T06:46:24;7.23;;;3.40;;
64957;SDS011;51486;50.232;19.208;2023-03-13T06:49:10;7.27;;;3.60;;
64957;SDS011;51486;50.232;19.208;2023-03-13T06:51:56;10.90;;;3.50;;
64957;SDS011;51486;50.232;19.208;2023-03-13T06:54:42;11.53;;;3.70;;
64957;SDS011;51486;50.232;19.208;2023-03-13T06:57:28;5.60;;;3.17;;
64957;SDS011;51486;50.232;19.208;2023-03-13T07:00:14;10.67;;;3.63;;
64957;SDS011;51486;50.232;19.208;2023-03-13T07:03:00;7.80;;;3.90;;
64957;SDS011;51486;50.232;19.208;2023-03-13T07:05:46;7.93;;;4.07;;
64957;SDS011;51486;50.232;19.208;2023-03-13T07:08:31;12.03;;;3.50;;
64957;SDS011;51486;50.232;19.208;2023-03-13T07:11:17;22.07;;;5.03;;
64957;SDS011;51486;50.232;19.208;2023-03-13T07:14:03;8.90;;;4.47;;
64957;SDS011;51486;50.232;19.208;2023-03-13T07:16:49;10.37;;;5.50;;
64957;SDS011;51486;50.232;19.208;2023-03-13T07:19:34;9.33;;;4.33;;
64957;SDS011;51486;50.232;19.208;2023-03-13T07:22:20;10.67;;;4.17;;
64957;SDS011;51486;50.232;19.208;2023-03-13T07:25:06;7.63;;;2.53;;
64957;SDS011;51486;50.232;19.208;2023-03-13T07:27:52;13.07;;;5.77;;
64957;SDS011;51486;50.232;19.208;2023-03-13T07:30:38;13.70;;;5.60;;
64957;SDS011;51486;50.232;19.208;2023-03-13T07:33:23;10.30;;;2.90;;
64957;SDS011;51486;50.232;19.208;2023-03-13T07:36:09;6.27;;;3.10;;
64957;SDS011;51486;50.232;19.208;2023-03-13T07:38:55;7.10;;;3.23;;
64957;SDS011;51486;50.232;19.208;2023-03-13T07:41:41;11.17;;;3.33;;
64957;SDS011;51486;50.232;19.208;2023-03-13T07:44:27;7.50;;;2.73;;
64957;SDS011;51486;50.232;19.208;2023-03-13T07:47:13;6.00;;;2.63;;
64957;SDS011;51486;50.232;19.208;2023-03-13T07:49:58;6.00;;;2.77;;
64957;SDS011;51486;50.232;19.208;2023-03-13T07:52:44;9.63;;;3.00;;
64957;SDS011;51486;50.232;19.208;2023-03-13T07:55:30;5.20;;;2.07;;
64957;SDS011;51486;50.232;19.208;2023-03-13T07:58:15;9.40;;;3.07;;
64957;SDS011;51486;50.232;19.208;2023-03-13T08:01:07;7.23;;;2.93;;
64957;SDS011;51486;50.232;19.208;2023-03-13T08:03:53;8.47;;;2.43;;
64957;SDS011;51486;50.232;19.208;2023-03-13T08:06:40;7.10;;;3.67;;
64957;SDS011;51486;50.232;19.208;2023-03-13T08:09:26;4.40;;;2.73;;
64957;SDS011;51486;50.232;19.208;2023-03-13T08:12:12;3.23;;;2.33;;
64957;SDS011;51486;50.232;19.208;2023-03-13T08:14:57;3.77;;;2.43;;
64957;SDS011;51486;50.232;19.208;2023-03-13T08:17:43;4.23;;;2.40;;
64957;SDS011;51486;50.232;19.208;2023-03-13T08:20:29;12.30;;;3.10;;
64957;SDS011;51486;50.232;19.208;2023-03-13T08:23:14;2.60;;;2.13;;
64957;SDS011;51486;50.232;19.208;2023-03-13T08:26:07;5.03;;;2.07;;
64957;SDS011;51486;50.232;19.208;2023-03-13T08:28:54;5.17;;;2.23;;
64957;SDS011;51486;50.232;19.208;2023-03-13T08:34:29;6.80;;;1.90;;
64957;SDS011;51486;50.232;19.208;2023-03-13T08:37:15;3.77;;;2.40;;
64957;SDS011;51486;50.232;19.208;2023-03-13T08:40:01;5.33;;;2.67;;
64957;SDS011;51486;50.232;19.208;2023-03-13T08:42:47;6.90;;;2.43;;
64957;SDS011;51486;50.232;19.208;2023-03-13T08:45:33;4.67;;;2.70;;
64957;SDS011;51486;50.232;19.208;2023-03-13T08:48:19;4.13;;;2.40;;
64957;SDS011;51486;50.232;19.208;2023-03-13T08:51:08;3.90;;;2.57;;
64957;SDS011;51486;50.232;19.208;2023-03-13T08:53:54;5.47;;;2.47;;
64957;SDS011;51486;50.232;19.208;2023-03-13T08:56:40;5.20;;;2.23;;
64957;SDS011;51486;50.232;19.208;2023-03-13T08:59:27;6.33;;;2.87;;
64957;SDS011;51486;50.232;19.208;2023-03-13T09:02:13;3.93;;;2.20;;
64957;SDS011;51486;50.232;19.208;2023-03-13T09:05:04;4.80;;;2.47;;
64957;SDS011;51486;50.232;19.208;2023-03-13T09:07:50;3.83;;;2.27;;
64957;SDS011;51486;50.232;19.208;2023-03-13T09:10:35;4.60;;;2.40;;
64957;SDS011;51486;50.232;19.208;2023-03-13T09:13:21;6.67;;;2.37;;
64957;SDS011;51486;50.232;19.208;2023-03-13T09:16:08;4.33;;;2.90;;
64957;SDS011;51486;50.232;19.208;2023-03-13T09:18:55;5.30;;;2.33;;
64957;SDS011;51486;50.232;19.208;2023-03-13T09:21:41;3.87;;;2.60;;
64957;SDS011;51486;50.232;19.208;2023-03-13T09:24:27;5.07;;;2.37;;
64957;SDS011;51486;50.232;19.208;2023-03-13T09:27:12;4.20;;;2.23;;
64957;SDS011;51486;50.232;19.208;2023-03-13T09:29:58;4.23;;;2.30;;
64957;SDS011;51486;50.232;19.208;2023-03-13T09:32:44;13.53;;;3.03;;
64957;SDS011;51486;50.232;19.208;2023-03-13T09:35:30;7.83;;;2.80;;
64957;SDS011;51486;50.232;19.208;2023-03-13T09:38:16;4.77;;;2.80;;
64957;SDS011;51486;50.232;19.208;2023-03-13T09:44:14;6.23;;;2.97;;
64957;SDS011;51486;50.232;19.208;2023-03-13T09:47:08;4.60;;;2.73;;
64957;SDS011;51486;50.232;19.208;2023-03-13T09:49:58;3.93;;;2.13;;
64957;SDS011;51486;50.232;19.208;2023-03-13T09:52:45;4.70;;;1.80;;
64957;SDS011;51486;50.232;19.208;2023-03-13T09:55:33;5.57;;;2.43;;
64957;SDS011;51486;50.232;19.208;2023-03-13T09:58:22;2.40;;;2.07;;
64957;SDS011;51486;50.232;19.208;2023-03-13T10:01:08;4.70;;;1.80;;
64957;SDS011;51486;50.232;19.208;2023-03-13T10:04:41;4.93;;;2.00;;
64957;SDS011;51486;50.232;19.208;2023-03-13T10:07:01;3.40;;;1.87;;
64957;SDS011;51486;50.232;19.208;2023-03-13T10:09:48;4.03;;;2.20;;
64957;SDS011;51486;50.232;19.208;2023-03-13T10:12:43;5.43;;;1.90;;
64957;SDS011;51486;50.232;19.208;2023-03-13T10:15:36;4.50;;;2.17;;
64957;SDS011;51486;50.232;19.208;2023-03-13T10:18:24;3.43;;;2.00;;
64957;SDS011;51486;50.232;19.208;2023-03-13T10:21:17;2.53;;;1.50;;
64957;SDS011;51486;50.232;19.208;2023-03-13T10:24:13;5.07;;;1.83;;
64957;SDS011;51486;50.232;19.208;2023-03-13T10:26:59;1.83;;;1.43;;
64957;SDS011;51486;50.232;19.208;2023-03-13T10:29:45;1.97;;;1.40;;
64957;SDS011;51486;50.232;19.208;2023-03-13T10:39:11;2.43;;;1.80;;
64957;SDS011;51486;50.232;19.208;2023-03-13T10:42:10;1.60;;;1.50;;
64957;SDS011;51486;50.232;19.208;2023-03-13T10:45:03;6.10;;;2.60;;
64957;SDS011;51486;50.232;19.208;2023-03-13T10:47:53;3.03;;;1.37;;
64957;SDS011;51486;50.232;19.208;2023-03-13T10:50:41;5.43;;;1.70;;
64957;SDS011;51486;50.232;19.208;2023-03-13T10:56:15;4.57;;;2.17;;
64957;SDS011;51486;50.232;19.208;2023-03-13T10:59:22;3.50;;;1.83;;
64957;SDS011;51486;50.232;19.208;2023-03-13T11:02:24;6.53;;;2.10;;
64957;SDS011;51486;50.232;19.208;2023-03-13T11:05:32;3.07;;;1.77;;
64957;SDS011;51486;50.232;19.208;2023-03-13T11:08:26;4.57;;;2.37;;
64957;SDS011;51486;50.232;19.208;2023-03-13T11:11:18;4.17;;;1.90;;
64957;SDS011;51486;50.232;19.208;2023-03-13T11:14:08;7.57;;;1.97;;
64957;SDS011;51486;50.232;19.208;2023-03-13T11:17:43;2.70;;;1.60;;
64957;SDS011;51486;50.232;19.208;2023-03-13T11:23:26;5.77;;;2.03;;
64957;SDS011;51486;50.232;19.208;2023-03-13T11:32:19;3.50;;;1.73;;
64957;SDS011;51486;50.232;19.208;2023-03-13T11:35:20;3.73;;;1.80;;
64957;SDS011;51486;50.232;19.208;2023-03-13T11:38:28;4.77;;;2.37;;
64957;SDS011;51486;50.232;19.208;2023-03-13T11:41:25;2.33;;;1.63;;
64957;SDS011;51486;50.232;19.208;2023-03-13T12:03:16;2.80;;;2.20;;
64957;SDS011;51486;50.232;19.208;2023-03-13T12:06:23;4.13;;;2.30;;
64957;SDS011;51486;50.232;19.208;2023-03-13T12:09:24;3.67;;;2.03;;
64957;SDS011;51486;50.232;19.208;2023-03-13T12:15:16;3.30;;;2.00;;
64957;SDS011;51486;50.232;19.208;2023-03-13T12:18:16;1.90;;;1.50;;
64957;SDS011;51486;50.232;19.208;2023-03-13T12:21:12;4.87;;;1.90;;
64957;SDS011;51486;50.232;19.208;2023-03-13T12:24:24;4.60;;;2.00;;
64957;SDS011;51486;50.232;19.208;2023-03-13T12:36:51;2.27;;;1.57;;
64957;SDS011;51486;50.232;19.208;2023-03-13T12:43:01;5.40;;;2.07;;
64957;SDS011;51486;50.232;19.208;2023-03-13T12:51:47;3.23;;;1.80;;
64957;SDS011;51486;50.232;19.208;2023-03-13T13:01:43;3.63;;;1.73;;
64957;SDS011;51486;50.232;19.208;2023-03-13T13:04:26;2.97;;;1.80;;
64957;SDS011;51486;50.232;19.208;2023-03-13T13:10:15;3.10;;;2.07;;
64957;SDS011;51486;50.232;19.208;2023-03-13T13:16:02;4.23;;;2.03;;
64957;SDS011;51486;50.232;19.208;2023-03-13T13:18:50;2.20;;;1.23;;
64957;SDS011;51486;50.232;19.208;2023-03-13T13:21:36;3.27;;;2.13;;
64957;SDS011;51486;50.232;19.208;2023-03-13T13:24:47;5.20;;;2.73;;
64957;SDS011;51486;50.232;19.208;2023-03-13T13:39:20;4.23;;;1.93;;
64957;SDS011;51486;50.232;19.208;2023-03-13T13:51:24;6.27;;;1.87;;
64957;SDS011;51486;50.232;19.208;2023-03-13T13:57:31;5.27;;;2.13;;
64957;SDS011;51486;50.232;19.208;2023-03-13T14:00:22;2.73;;;1.53;;
64957;SDS011;51486;50.232;19.208;2023-03-13T14:03:32;4.00;;;2.20;;
64957;SDS011;51486;50.232;19.208;2023-03-13T14:06:19;2.97;;;1.80;;
64957;SDS011;51486;50.232;19.208;2023-03-13T14:09:12;5.07;;;2.47;;
64957;SDS011;51486;50.232;19.208;2023-03-13T14:18:07;6.13;;;2.10;;
64957;SDS011;51486;50.232;19.208;2023-03-13T14:21:03;3.47;;;1.47;;
64957;SDS011;51486;50.232;19.208;2023-03-13T14:23:57;2.93;;;1.83;;
64957;SDS011;51486;50.232;19.208;2023-03-13T14:26:43;4.43;;;2.07;;
64957;SDS011;51486;50.232;19.208;2023-03-13T14:29:29;4.40;;;2.17;;
64957;SDS011;51486;50.232;19.208;2023-03-13T14:32:16;5.53;;;2.30;;
64957;SDS011;51486;50.232;19.208;2023-03-13T14:35:05;5.03;;;2.60;;
64957;SDS011;51486;50.232;19.208;2023-03-13T14:37:52;3.20;;;1.40;;
64957;SDS011;51486;50.232;19.208;2023-03-13T14:40:46;8.57;;;2.63;;
64957;SDS011;51486;50.232;19.208;2023-03-13T14:43:34;7.47;;;2.40;;
64957;SDS011;51486;50.232;19.208;2023-03-13T14:49:18;7.07;;;2.90;;
64957;SDS011;51486;50.232;19.208;2023-03-13T14:52:22;6.17;;;2.33;;
64957;SDS011;51486;50.232;19.208;2023-03-13T15:01:11;10.10;;;3.03;;
64957;SDS011;51486;50.232;19.208;2023-03-13T15:04:05;5.37;;;2.20;;
64957;SDS011;51486;50.232;19.208;2023-03-13T15:07:00;8.63;;;2.10;;
64957;SDS011;51486;50.232;19.208;2023-03-13T15:09:48;5.30;;;2.53;;
64957;SDS011;51486;50.232;19.208;2023-03-13T15:12:40;4.87;;;3.27;;
64957;SDS011;51486;50.232;19.208;2023-03-13T15:15:27;5.70;;;2.07;;
64957;SDS011;51486;50.232;19.208;2023-03-13T15:18:17;3.63;;;1.97;;
64957;SDS011;51486;50.232;19.208;2023-03-13T15:24:10;3.30;;;2.20;;
64957;SDS011;51486;50.232;19.208;2023-03-13T15:26:58;4.83;;;2.73;;
64957;SDS011;51486;50.232;19.208;2023-03-13T15:29:44;4.60;;;2.30;;
64957;SDS011;51486;50.232;19.208;2023-03-13T15:32:35;7.97;;;2.20;;
64957;SDS011;51486;50.232;19.208;2023-03-13T15:35:26;6.60;;;2.67;;
64957;SDS011;51486;50.232;19.208;2023-03-13T15:38:15;5.63;;;2.43;;
64957;SDS011;51486;50.232;19.208;2023-03-13T15:41:02;4.87;;;2.70;;
64957;SDS011;51486;50.232;19.208;2023-03-13T15:43:48;5.43;;;2.00;;
64957;SDS011;51486;50.232;19.208;2023-03-13T15:46:39;4.03;;;2.23;;
64957;SDS011;51486;50.232;19.208;2023-03-13T15:49:25;5.63;;;2.60;;
64957;SDS011;51486;50.232;19.208;2023-03-13T15:52:15;3.67;;;2.47;;
64957;SDS011;51486;50.232;19.208;2023-03-13T15:55:08;3.83;;;1.93;;
64957;SDS011;51486;50.232;19.208;2023-03-13T15:57:55;2.63;;;1.97;;
64957;SDS011;51486;50.232;19.208;2023-03-13T16:00:41;4.30;;;2.43;;
64957;SDS011;51486;50.232;19.208;2023-03-13T16:03:28;4.37;;;1.83;;
64957;SDS011;51486;50.232;19.208;2023-03-13T16:06:15;6.13;;;2.23;;
64957;SDS011;51486;50.232;19.208;2023-03-13T16:09:03;4.10;;;2.30;;
64957;SDS011;51486;50.232;19.208;2023-03-13T16:11:50;4.60;;;2.33;;
64957;SDS011;51486;50.232;19.208;2023-03-13T16:14:37;3.20;;;2.07;;
64957;SDS011;51486;50.232;19.208;2023-03-13T16:17:23;8.60;;;3.33;;
64957;SDS011;51486;50.232;19.208;2023-03-13T16:20:17;7.40;;;3.73;;
64957;SDS011;51486;50.232;19.208;2023-03-13T16:23:06;8.50;;;3.43;;
64957;SDS011;51486;50.232;19.208;2023-03-13T16:25:52;8.83;;;3.63;;
64957;SDS011;51486;50.232;19.208;2023-03-13T16:28:37;8.37;;;3.10;;
64957;SDS011;51486;50.232;19.208;2023-03-13T16:31:24;8.03;;;4.53;;
64957;SDS011;51486;50.232;19.208;2023-03-13T16:34:15;12.07;;;6.37;;
64957;SDS011;51486;50.232;19.208;2023-03-13T16:37:05;16.53;;;5.13;;
64957;SDS011;51486;50.232;19.208;2023-03-13T16:39:55;7.47;;;4.27;;
64957;SDS011;51486;50.232;19.208;2023-03-13T16:42:41;8.93;;;3.90;;
64957;SDS011;51486;50.232;19.208;2023-03-13T16:45:27;7.73;;;3.47;;
64957;SDS011;51486;50.232;19.208;2023-03-13T16:48:15;8.87;;;3.80;;
64957;SDS011;51486;50.232;19.208;2023-03-13T16:51:01;7.50;;;3.07;;
64957;SDS011;51486;50.232;19.208;2023-03-13T16:53:48;9.73;;;3.37;;
64957;SDS011;51486;50.232;19.208;2023-03-13T16:56:37;13.60;;;3.27;;
64957;SDS011;51486;50.232;19.208;2023-03-13T16:59:24;8.30;;;3.60;;
64957;SDS011;51486;50.232;19.208;2023-03-13T17:02:14;11.03;;;3.83;;
64957;SDS011;51486;50.232;19.208;2023-03-13T17:05:01;15.63;;;4.93;;
64957;SDS011;51486;50.232;19.208;2023-03-13T17:07:47;8.37;;;4.07;;
64957;SDS011;51486;50.232;19.208;2023-03-13T17:10:34;9.00;;;3.77;;
64957;SDS011;51486;50.232;19.208;2023-03-13T17:13:20;9.03;;;4.13;;
64957;SDS011;51486;50.232;19.208;2023-03-13T17:16:15;5.00;;;2.77;;
64957;SDS011;51486;50.232;19.208;2023-03-13T17:19:03;10.63;;;4.37;;
64957;SDS011;51486;50.232;19.208;2023-03-13T17:21:50;11.97;;;4.77;;
64957;SDS011;51486;50.232;19.208;2023-03-13T17:24:36;10.60;;;3.93;;
64957;SDS011;51486;50.232;19.208;2023-03-13T17:27:22;8.57;;;3.93;;
64957;SDS011;51486;50.232;19.208;2023-03-13T17:33:05;6.47;;;2.93;;
64957;SDS011;51486;50.232;19.208;2023-03-13T17:35:51;3.43;;;2.47;;
64957;SDS011;51486;50.232;19.208;2023-03-13T17:38:37;4.77;;;2.63;;
64957;SDS011;51486;50.232;19.208;2023-03-13T17:41:24;5.37;;;2.40;;
64957;SDS011;51486;50.232;19.208;2023-03-13T17:44:11;6.77;;;2.50;;
64957;SDS011;51486;50.232;19.208;2023-03-13T17:46:57;6.93;;;2.97;;
64957;SDS011;51486;50.232;19.208;2023-03-13T17:49:42;7.10;;;3.33;;
64957;SDS011;51486;50.232;19.208;2023-03-13T17:52:28;7.10;;;3.00;;
64957;SDS011;51486;50.232;19.208;2023-03-13T17:55:14;5.43;;;2.97;;
64957;SDS011;51486;50.232;19.208;2023-03-13T17:58:00;9.20;;;3.37;;
64957;SDS011;51486;50.232;19.208;2023-03-13T18:00:46;8.60;;;3.63;;
64957;SDS011;51486;50.232;19.208;2023-03-13T18:03:32;7.93;;;3.60;;
64957;SDS011;51486;50.232;19.208;2023-03-13T18:09:07;8.07;;;4.13;;
64957;SDS011;51486;50.232;19.208;2023-03-13T18:11:57;5.40;;;2.90;;
64957;SDS011;51486;50.232;19.208;2023-03-13T18:14:42;8.40;;;3.67;;
64957;SDS011;51486;50.232;19.208;2023-03-13T18:17:28;5.97;;;3.17;;
64957;SDS011;51486;50.232;19.208;2023-03-13T18:20:18;4.87;;;2.67;;
64957;SDS011;51486;50.232;19.208;2023-03-13T18:23:05;6.83;;;3.40;;
64957;SDS011;51486;50.232;19.208;2023-03-13T18:25:51;4.97;;;2.90;;
64957;SDS011;51486;50.232;19.208;2023-03-13T18:28:37;5.27;;;3.00;;
64957;SDS011;51486;50.232;19.208;2023-03-13T18:31:22;9.13;;;3.70;;
64957;SDS011;51486;50.232;19.208;2023-03-13T18:34:09;9.03;;;3.50;;
64957;SDS011;51486;50.232;19.208;2023-03-13T18:36:55;9.80;;;3.60;;
64957;SDS011;51486;50.232;19.208;2023-03-13T18:39:47;7.57;;;3.67;;
64957;SDS011;51486;50.232;19.208;2023-03-13T18:42:36;13.10;;;5.30;;
64957;SDS011;51486;50.232;19.208;2023-03-13T18:45:22;11.27;;;4.97;;